Home > Products > Valid Products > MTR

000
SAUS43 KEAX 052153
MTRCDJ
METAR KCDJ 052152Z AUTO 28005KT M02/M17 A3052 RMK AO1 SLP358
T10171172





000
SAUS43 KEAX 052153
MTRCDJ
METAR KCDJ 052152Z AUTO 28005KT M02/M17 A3052 RMK AO1 SLP358
T10171172





000
SAUS43 KEAX 052053
MTRCDJ
METAR KCDJ 052052Z AUTO VRB04KT M02/M16 A3053 RMK AO1 SLP359
T10221156 56022





000
SAUS43 KEAX 051953
MTRCDJ
METAR KCDJ 051952Z AUTO VRB04KT M03/M14 A3054 RMK AO1 SLP364
T10281144





000
SAUS43 KEAX 051953
MTRCDJ
METAR KCDJ 051952Z AUTO VRB04KT M03/M14 A3054 RMK AO1 SLP364
T10281144





000
SAUS43 KEAX 051853
MTRCDJ
METAR KCDJ 051852Z AUTO 01005KT M04/M16 A3057 RMK AO1 SLP376
T10441156





000
SAUS43 KEAX 051753
MTRCDJ
METAR KCDJ 051752Z AUTO 32005KT M06/M17 A3060 RMK AO1 SLP383
T10561167 11056 21133 58001





000
SAUS43 KEAX 051753
MTRCDJ
METAR KCDJ 051752Z AUTO 32005KT M06/M17 A3060 RMK AO1 SLP383
T10561167 11056 21133 58001





000
SAUS43 KEAX 051653
MTRCDJ
METAR KCDJ 051652Z AUTO 31006KT M07/M17 A3061 RMK AO1 SLP386
T10721172





000
SAUS43 KEAX 051653
MTRCDJ
METAR KCDJ 051652Z AUTO 31006KT M07/M17 A3061 RMK AO1 SLP386
T10721172





000
SAUS43 KEAX 051553
MTRCDJ
METAR KCDJ 051552Z AUTO VRB04KT M09/M18 A3061 RMK AO1 SLP387
T10941178





000
SAUS43 KEAX 051553
MTRCDJ
METAR KCDJ 051552Z AUTO VRB04KT M09/M18 A3061 RMK AO1 SLP387
T10941178





000
SAUS43 KEAX 051453
MTRCDJ
METAR KCDJ 051452Z AUTO VRB06KT M11/M17 A3060 RMK AO1 SLP384
T11061172 53018





000
SAUS43 KEAX 051353
MTRCDJ
METAR KCDJ 051352Z AUTO 33007KT M12/M18 A3058 RMK AO1 SLP377
T11221178





000
SAUS43 KEAX 051353
MTRCDJ
METAR KCDJ 051352Z AUTO 33007KT M12/M18 A3058 RMK AO1 SLP377
T11221178





000
SAUS43 KEAX 051254
MTRCDJ
METAR KCDJ 051252Z AUTO 33005KT M13/M19 A3055 RMK AO1 SLP371
T11331189





000
SAUS43 KEAX 051254
MTRCDJ
METAR KCDJ 051252Z AUTO 33005KT M13/M19 A3055 RMK AO1 SLP371
T11331189





000
SAUS43 KEAX 051153
MTRCDJ
METAR KCDJ 051152Z AUTO 32006KT M13/M18 A3054 RMK AO1 SLP366
T11281178 11072 21128 53023





000
SAUS43 KEAX 051053
MTRCDJ
METAR KCDJ 051052Z AUTO 32005KT M12/M17 A3051 RMK AO1 SLP354
T11171167





000
SAUS43 KEAX 051053
MTRCDJ
METAR KCDJ 051052Z AUTO 32005KT M12/M17 A3051 RMK AO1 SLP354
T11171167





000
SAUS43 KEAX 050953
MTRCDJ
METAR KCDJ 050952Z AUTO 33005KT M11/M17 A3049 RMK AO1 SLP347
T11061167





000
SAUS43 KEAX 050953
MTRCDJ
METAR KCDJ 050952Z AUTO 33005KT M11/M17 A3049 RMK AO1 SLP347
T11061167





000
SAUS43 KEAX 050853
MTRCDJ
METAR KCDJ 050852Z AUTO 34004KT M09/M16 A3047 RMK AO1 SLP340
T10941161 51010





000
SAUS43 KEAX 050853
MTRCDJ
METAR KCDJ 050852Z AUTO 34004KT M09/M16 A3047 RMK AO1 SLP340
T10941161 51010





000
SAUS43 KEAX 050753
MTRCDJ
METAR KCDJ 050752Z AUTO 34004KT M09/M15 A3047 RMK AO1 SLP341
T10891150





000
SAUS43 KEAX 050653
MTRCDJ
METAR KCDJ 050652Z AUTO 36005KT M08/M16 A3045 RMK AO1 SLP333
T10831156





000
SAUS43 KEAX 050653
MTRCDJ
METAR KCDJ 050652Z AUTO 36005KT M08/M16 A3045 RMK AO1 SLP333
T10831156





000
SAUS43 KEAX 050553
MTRCDJ
METAR KCDJ 050552Z AUTO 36005KT M08/M16 A3044 RMK AO1 SLP330
T10781161 11017 21078 410171078 50018





000
SAUS43 KEAX 050553
MTRCDJ
METAR KCDJ 050552Z AUTO 36005KT M08/M16 A3044 RMK AO1 SLP330
T10781161 11017 21078 410171078 50018





000
SAUS43 KEAX 050453
MTRCDJ
METAR KCDJ 050452Z AUTO 36006G14KT M06/M15 A3045 RMK AO1 SLP330
T10611150





000
SAUS43 KEAX 050453
MTRCDJ
METAR KCDJ 050452Z AUTO 36006G14KT M06/M15 A3045 RMK AO1 SLP330
T10611150





000
SAUS43 KEAX 050353
MTRCDJ
METAR KCDJ 050352Z AUTO 01011KT M04/M14 A3042 RMK AO1 SLP320
T10441139





000
SAUS43 KEAX 050353
MTRCDJ
METAR KCDJ 050352Z AUTO 01011KT M04/M14 A3042 RMK AO1 SLP320
T10441139





000
SAUS43 KEAX 050253
MTRCDJ
METAR KCDJ 050252Z AUTO 34010G16KT M03/M14 A3039 RMK AO1 SLP311
T10281144 51032





000
SAUS43 KEAX 050153
MTRCDJ
METAR KCDJ 050152Z AUTO 00000KT M03/M11 A3036 RMK AO1 SLP301
T10281111





000
SAUS43 KEAX 050153
MTRCDJ
METAR KCDJ 050152Z AUTO 00000KT M03/M11 A3036 RMK AO1 SLP301
T10281111





000
SAUS43 KEAX 050054
MTRCDJ
METAR KCDJ 050052Z AUTO 00000KT M02/M14 A3037 RMK AO1 PRESRR SLP303
T10221139





000
SAUS43 KEAX 050054
MTRCDJ
METAR KCDJ 050052Z AUTO 00000KT M02/M14 A3037 RMK AO1 PRESRR SLP303
T10221139





000
SAUS43 KEAX 042353
MTRCDJ
METAR KCDJ 042352Z AUTO 33004KT M02/M14 A3029 RMK AO1 SLP278
T10171139 11017 21039 51001





000
SAUS43 KEAX 042353
MTRCDJ
METAR KCDJ 042352Z AUTO 33004KT M02/M14 A3029 RMK AO1 SLP278
T10171139 11017 21039 51001





000
SAUS43 KEAX 042253
MTRCDJ
METAR KCDJ 042252Z AUTO 35005KT M02/M14 A3028 RMK AO1 SLP271
T10171139





000
SAUS43 KEAX 042153
MTRCDJ
METAR KCDJ 042152Z AUTO 33006G15KT M02/M14 A3031 RMK AO1 SLP283
T10221139





000
SAUS43 KEAX 042053
MTRCDJ
METAR KCDJ 042052Z AUTO 02008KT M02/M14 A3029 RMK AO1 SLP275
T10221139 58014





000
SAUS43 KEAX 041953
MTRCDJ
METAR KCDJ 041952Z AUTO VRB06KT M03/M15 A3031 RMK AO1 SLP284
T10331150





000
SAUS43 KEAX 041853
MTRCDJ
METAR KCDJ 041852Z AUTO VRB06KT M03/M14 A3033 RMK AO1 SLP288
T10331144





000
SAUS43 KEAX 041853
MTRCDJ
METAR KCDJ 041852Z AUTO VRB06KT M03/M14 A3033 RMK AO1 SLP288
T10331144





000
SAUS43 KEAX 041753
MTRCDJ
METAR KCDJ 041752Z AUTO 02010G15KT 340V040 M04/M15 A3033 RMK AO1
SLP289 T10391150 11033 21072 51007





000
SAUS43 KEAX 041753
MTRCDJ
METAR KCDJ 041752Z AUTO 02010G15KT 340V040 M04/M15 A3033 RMK AO1
SLP289 T10391150 11033 21072 51007





000
SAUS43 KEAX 041653
MTRCDJ
METAR KCDJ 041652Z AUTO 01011G16KT M04/M16 A3032 RMK AO1 SLP285
T10441156





000
SAUS43 KEAX 041553
MTRCDJ
METAR KCDJ 041552Z AUTO 34011G18KT M06/M16 A3033 RMK AO1 SLP286
T10561161





000
SAUS43 KEAX 041453
MTRCDJ
METAR KCDJ 041452Z AUTO 36006G19KT M06/M16 A3031 RMK AO1 SLP280
T10611161 53026





000
SAUS43 KEAX 041353
MTRCDJ
METAR KCDJ 041352Z AUTO 34009G15KT M07/M15 A3027 RMK AO1 SLP268
T10671150





000
SAUS43 KEAX 041253
MTRCDJ
METAR KCDJ 041252Z AUTO 35008KT 300V010 M07/M14 A3025 RMK AO1 SLP259
T10671139





000
SAUS43 KEAX 041253
MTRCDJ
METAR KCDJ 041252Z AUTO 35008KT 300V010 M07/M14 A3025 RMK AO1 SLP259
T10671139





000
SAUS43 KEAX 041153
MTRCDJ
METAR KCDJ 041152Z AUTO 35008KT M07/M14 A3023 RMK AO1 SLP253
T10721139 11017 21072 53021





000
SAUS43 KEAX 041153
MTRCDJ
METAR KCDJ 041152Z AUTO 35008KT M07/M14 A3023 RMK AO1 SLP253
T10721139 11017 21072 53021





000
SAUS43 KEAX 041053
MTRCDJ
METAR KCDJ 041052Z AUTO 36011G17KT M07/M13 A3019 RMK AO1 SLP240
T10671133





000
SAUS43 KEAX 040953
MTRCDJ
METAR KCDJ 040952Z AUTO 34008KT M07/M13 A3018 RMK AO1 PRESRR SLP236
T10721128





000
SAUS43 KEAX 040853
MTRCDJ
METAR KCDJ 040852Z AUTO 34007KT M06/M11 A3017 RMK AO1 SLP231
T10611111 51045





000
SAUS43 KEAX 040753
MTRCDJ
METAR KCDJ 040752Z AUTO 34011G20KT M05/M10 A3013 RMK AO1 SLP218
T10501100





000
SAUS43 KEAX 040654
MTRCDJ
METAR KCDJ 040652Z AUTO 34009G17KT M03/M08 A3007 RMK AO1 PRESRR
SLP195 T10281083





000
SAUS43 KEAX 040654
MTRCDJ
METAR KCDJ 040652Z AUTO 34009G17KT M03/M08 A3007 RMK AO1 PRESRR
SLP195 T10281083





000
SAUS43 KEAX 040553
MTRCDJ
METAR KCDJ 040552Z AUTO 35008G18KT M02/M07 A3003 RMK AO1 SLP180
T10171067 10028 21017 400671017 51013





000
SAUS43 KEAX 040553
MTRCDJ
METAR KCDJ 040552Z AUTO 35008G18KT M02/M07 A3003 RMK AO1 SLP180
T10171067 10028 21017 400671017 51013





000
SAUS43 KEAX 040453
MTRCDJ
METAR KCDJ 040452Z AUTO 34008KT M01/M05 A3003 RMK AO1 SLP178
T10061050





000
SAUS43 KEAX 040353
MTRCDJ
METAR KCDJ 040352Z AUTO 34008KT 01/M04 A3001 RMK AO1 SLP172
T00061044





000
SAUS43 KEAX 040353
MTRCDJ
METAR KCDJ 040352Z AUTO 34008KT 01/M04 A3001 RMK AO1 SLP172
T00061044





000
SAUS43 KEAX 040253
MTRCDJ
METAR KCDJ 040252Z AUTO 34006KT 01/M03 A2999 RMK AO1 SLP169
T00111028 51025





000
SAUS43 KEAX 040153
MTRCDJ
METAR KCDJ 040152Z AUTO 33005KT 02/M03 A2997 RMK AO1 SLP160
T00221028





000
SAUS43 KEAX 040153
MTRCDJ
METAR KCDJ 040152Z AUTO 33005KT 02/M03 A2997 RMK AO1 SLP160
T00221028





000
SAUS43 KEAX 040054
MTRCDJ
METAR KCDJ 040052Z AUTO 32003KT 02/M03 A2995 RMK AO1 SLP153
T00221028





000
SAUS43 KEAX 040054
MTRCDJ
METAR KCDJ 040052Z AUTO 32003KT 02/M03 A2995 RMK AO1 SLP153
T00221028





000
SAUS43 KEAX 032353
MTRCDJ
METAR KCDJ 032352Z AUTO 33004KT 03/M02 A2992 RMK AO1 SLP141
T00281022 10067 20028 51028





000
SAUS43 KEAX 032353
MTRCDJ
METAR KCDJ 032352Z AUTO 33004KT 03/M02 A2992 RMK AO1 SLP141
T00281022 10067 20028 51028





000
SAUS43 KEAX 032253
MTRCDJ
METAR KCDJ 032252Z AUTO 33007KT 03/M01 A2987 RMK AO1 SLP127
T00331011





000
SAUS43 KEAX 032253
MTRCDJ
METAR KCDJ 032252Z AUTO 33007KT 03/M01 A2987 RMK AO1 SLP127
T00331011





000
SAUS43 KEAX 032154
MTRCDJ
METAR KCDJ 032152Z AUTO 33008KT 04/M01 A2988 RMK AO1 PRESRR SLP128
T00391006





000
SAUS43 KEAX 032154
MTRCDJ
METAR KCDJ 032152Z AUTO 33008KT 04/M01 A2988 RMK AO1 PRESRR SLP128
T00391006





000
SAUS43 KEAX 032056
MTRCDJ
METAR KCDJ 032052Z AUTO 32008KT 04/01 A2983 RMK AO1 SLP112 T00390006
51021





000
SAUS43 KEAX 031956
MTRCDJ
METAR KCDJ 031952Z AUTO 32009G15KT 04/01 A2981 RMK AO1 SLP105
T00440011





000
SAUS43 KEAX 031856
MTRCDJ
METAR KCDJ 031852Z AUTO 30010G17KT 06/02 A2979 RMK AO1 SLP097
T00610022





000
SAUS43 KEAX 031856
MTRCDJ
METAR KCDJ 031852Z AUTO 30010G17KT 06/02 A2979 RMK AO1 SLP097
T00610022





000
SAUS43 KEAX 031757
MTRCDJ
METAR KCDJ 031752Z AUTO VRB05KT 06/04 A2977 RMK AO1 SLP090 T00560039
10056 20011 51014





000
SAUS43 KEAX 031757
MTRCDJ
METAR KCDJ 031752Z AUTO VRB05KT 06/04 A2977 RMK AO1 SLP090 T00560039
10056 20011 51014





000
SAUS43 KEAX 031656
MTRCDJ
METAR KCDJ 031652Z AUTO 24006KT 05/03 A2976 RMK AO1 SLP088 T00500033





000
SAUS43 KEAX 031557
MTRCDJ
METAR KCDJ 031552Z AUTO 21004KT 03/02 A2974 RMK AO1 SLP080 T00330022





000
SAUS43 KEAX 031457
MTRCDJ
METAR KCDJ 031452Z AUTO 19007KT 02/01 A2973 RMK AO1 SLP078 T00220011
56012





000
SAUS43 KEAX 031457
MTRCDJ
METAR KCDJ 031452Z AUTO 19007KT 02/01 A2973 RMK AO1 SLP078 T00220011
56012





000
SAUS43 KEAX 031356
MTRCDJ
METAR KCDJ 031352Z AUTO 18007KT 02/01 A2973 RMK AO1 SLP078 T00170006





000
SAUS43 KEAX 031356
MTRCDJ
METAR KCDJ 031352Z AUTO 18007KT 02/01 A2973 RMK AO1 SLP078 T00170006





000
SAUS43 KEAX 031256
MTRCDJ
METAR KCDJ 031252Z AUTO 19009KT 01/00 A2975 RMK AO1 SLP086 T00110000





000
SAUS43 KEAX 031156
MTRCDJ
METAR KCDJ 031152Z AUTO 18010KT 01/00 A2976 RMK AO1 SLP089 T00110000
10011 20000 56052





000
SAUS43 KEAX 031056
MTRCDJ
METAR KCDJ 031052Z AUTO 16011KT 00/M01 A2979 RMK AO1 SLP100
T00001011





000
SAUS43 KEAX 031056
MTRCDJ
METAR KCDJ 031052Z AUTO 16011KT 00/M01 A2979 RMK AO1 SLP100
T00001011





000
SAUS43 KEAX 030956
MTRCDJ
METAR KCDJ 030952Z AUTO 15007KT 00/M02 A2986 RMK AO1 SLP124
T00001017





000
SAUS43 KEAX 030956
MTRCDJ
METAR KCDJ 030952Z AUTO 15007KT 00/M02 A2986 RMK AO1 SLP124
T00001017





000
SAUS43 KEAX 030856
MTRCDJ
METAR KCDJ 030852Z AUTO 17010KT 01/M03 A2992 RMK AO1 SLP142
T00061033 56040





000
SAUS43 KEAX 030856
MTRCDJ
METAR KCDJ 030852Z AUTO 17010KT 01/M03 A2992 RMK AO1 SLP142
T00061033 56040





000
SAUS43 KEAX 030756
MTRCDJ
METAR KCDJ 030752Z AUTO 16010G17KT 01/M04 A2995 RMK AO1 PRESFR
SLP154 T00111039





000
SAUS43 KEAX 030756
MTRCDJ
METAR KCDJ 030752Z AUTO 16010G17KT 01/M04 A2995 RMK AO1 PRESFR
SLP154 T00111039





000
SAUS43 KEAX 030653
MTRCDJ
METAR KCDJ 030652Z AUTO 14007KT 01/M05 A2999 RMK AO1 SLP168
T00111050





000
SAUS43 KEAX 030653
MTRCDJ
METAR KCDJ 030652Z AUTO 14007KT 01/M05 A2999 RMK AO1 SLP168
T00111050





000
SAUS43 KEAX 030553
MTRCDJ
METAR KCDJ 030552Z AUTO 13011KT 01/M06 A3004 RMK AO1 SLP184
T00111056 10011 20006 400331078 56040





000
SAUS43 KEAX 030553
MTRCDJ
METAR KCDJ 030552Z AUTO 13011KT 01/M06 A3004 RMK AO1 SLP184
T00111056 10011 20006 400331078 56040





000
SAUS43 KEAX 030453
MTRCDJ
METAR KCDJ 030452Z AUTO 14009G17KT 01/M06 A3006 RMK AO1 SLP193
T00061056





000
SAUS43 KEAX 030453
MTRCDJ
METAR KCDJ 030452Z AUTO 14009G17KT 01/M06 A3006 RMK AO1 SLP193
T00061056





000
SAUS43 KEAX 030353
MTRCDJ
METAR KCDJ 030352Z AUTO 13009KT 01/M06 A3012 RMK AO1 SLP214
T00061061





000
SAUS43 KEAX 030353
MTRCDJ
METAR KCDJ 030352Z AUTO 13009KT 01/M06 A3012 RMK AO1 SLP214
T00061061





000
SAUS43 KEAX 030253
MTRCDJ
METAR KCDJ 030252Z AUTO 13006KT 01/M06 A3016 RMK AO1 SLP227
T00061061 58021





000
SAUS43 KEAX 030153
MTRCDJ
METAR KCDJ 030152Z AUTO 14007KT 01/M06 A3020 RMK AO1 SLP242
T00061061





000
SAUS43 KEAX 030153
MTRCDJ
METAR KCDJ 030152Z AUTO 14007KT 01/M06 A3020 RMK AO1 SLP242
T00061061





000
SAUS43 KEAX 030054
MTRCDJ
METAR KCDJ 030052Z AUTO 13005KT 01/M07 A3024 RMK AO1 SLP259
T00111072





000
SAUS43 KEAX 030054
MTRCDJ
METAR KCDJ 030052Z AUTO 13005KT 01/M07 A3024 RMK AO1 SLP259
T00111072





000
SAUS43 KEAX 022353
MTRCDJ
METAR KCDJ 022352Z AUTO 12011G16KT 01/M07 A3022 RMK AO1 SLP251
T00111072 10033 20011 58044





000
SAUS43 KEAX 022353
MTRCDJ
METAR KCDJ 022352Z AUTO 12011G16KT 01/M07 A3022 RMK AO1 SLP251
T00111072 10033 20011 58044





000
SAUS43 KEAX 022253
MTRCDJ
METAR KCDJ 022252Z AUTO 11009KT 02/M07 A3028 RMK AO1 SLP271
T00171072





000
SAUS43 KEAX 022253
MTRCDJ
METAR KCDJ 022252Z AUTO 11009KT 02/M07 A3028 RMK AO1 SLP271
T00171072





    US Dept of Commerce
    National Oceanic and Atmospheric Administration
    National Weather Service
    1325 East West Highway
    Silver Spring, MD 20910
    Page Author: NWS Internet Services Team
Disclaimer
Information Quality
Credits
Glossary
Privacy Policy
Freedom of Information Act (FOIA)
About Us
Career Opportunities